createdAt,value
2022-12-29T00:01:44.299Z,84.40
2022-12-29T00:04:15.273Z,84.88
2022-12-29T00:06:43.935Z,86.27
2022-12-29T00:09:16.592Z,86.03
2022-12-29T00:11:44.546Z,86.95
2022-12-29T00:14:31.490Z,87.39
2022-12-29T00:16:58.955Z,87.85
2022-12-29T00:19:44.961Z,87.95
2022-12-29T00:22:32.516Z,87.84
2022-12-29T00:25:19.377Z,87.84
2022-12-29T00:28:07.233Z,87.58
2022-12-29T00:30:54.951Z,88.34
2022-12-29T00:33:44.526Z,89.36
2022-12-29T00:36:29.031Z,89.19
2022-12-29T00:39:27.294Z,88.89
2022-12-29T00:42:12.799Z,89.26
2022-12-29T00:44:40.219Z,88.36
2022-12-29T00:47:07.579Z,89.18
2022-12-29T00:49:35.031Z,89.58
2022-12-29T00:52:05.904Z,89.63
2022-12-29T00:54:38.537Z,89.59
2022-12-29T00:57:07.940Z,89.25
2022-12-29T01:00:04.011Z,89.02
2022-12-29T01:02:31.661Z,89.49
2022-12-29T01:04:59.134Z,88.61
2022-12-29T01:07:26.510Z,88.58
2022-12-29T01:10:12.015Z,88.51
2022-12-29T01:12:41.963Z,87.96
2022-12-29T01:15:15.662Z,88.77
2022-12-29T01:17:43.597Z,89.13
2022-12-29T01:20:11.997Z,89.51
2022-12-29T01:22:40.036Z,88.97
2022-12-29T01:25:07.858Z,88.94
2022-12-29T01:27:35.873Z,89.00
2022-12-29T01:30:03.560Z,88.31
2022-12-29T01:32:33.013Z,87.98
2022-12-29T01:35:00.439Z,88.43
2022-12-29T01:37:27.829Z,88.79
2022-12-29T01:39:55.262Z,88.51
2022-12-29T01:42:26.194Z,87.01
2022-12-29T01:44:58.957Z,86.73
2022-12-29T01:47:45.112Z,87.77
2022-12-29T01:50:21.386Z,86.85
2022-12-29T01:52:57.384Z,87.04
2022-12-29T01:55:27.272Z,86.20
2022-12-29T01:57:58.773Z,86.20
2022-12-29T02:00:26.202Z,85.81
2022-12-29T02:02:54.607Z,85.67
2022-12-29T02:05:40.110Z,86.76
2022-12-29T02:08:09.319Z,87.09
2022-12-29T02:10:37.463Z,87.19
2022-12-29T02:13:04.965Z,87.96
2022-12-29T02:16:02.104Z,89.29
2022-12-29T02:19:00.250Z,89.17
2022-12-29T02:21:52.315Z,89.59
2022-12-29T02:24:36.788Z,89.95
2022-12-29T02:27:13.003Z,90.39
2022-12-29T02:29:55.562Z,90.40
2022-12-29T02:32:31.881Z,91.12
2022-12-29T02:35:19.587Z,92.65
2022-12-29T02:38:08.306Z,92.27
2022-12-29T02:40:44.548Z,92.42
2022-12-29T02:43:25.657Z,94.52
2022-12-29T02:45:53.100Z,94.58
2022-12-29T02:48:39.806Z,94.29
2022-12-29T02:51:41.717Z,94.56
2022-12-29T02:54:27.673Z,94.29
2022-12-29T02:56:55.050Z,94.52
2022-12-29T02:59:23.723Z,95.34
2022-12-29T03:02:18.529Z,97.12
2022-12-29T03:05:00.172Z,96.76
2022-12-29T03:07:50.366Z,97.83
2022-12-29T03:10:42.042Z,98.52
2022-12-29T03:13:40.089Z,97.85
2022-12-29T03:16:20.099Z,98.07
2022-12-29T03:18:56.414Z,97.77
2022-12-29T03:21:57.240Z,97.69
2022-12-29T03:24:29.804Z,100.00
2022-12-29T03:26:59.301Z,98.70
2022-12-29T03:29:32.005Z,100.00
2022-12-29T03:32:01.107Z,99.83
2022-12-29T03:34:29.767Z,99.15
2022-12-29T03:37:03.956Z,98.80
2022-12-29T03:39:32.031Z,99.64
2022-12-29T03:42:05.873Z,99.52
2022-12-29T03:44:38.700Z,99.71
2022-12-29T03:47:06.708Z,99.15
2022-12-29T03:49:35.443Z,97.99
2022-12-29T03:52:05.466Z,97.38
2022-12-29T03:54:37.387Z,98.60
2022-12-29T03:57:04.888Z,98.45
2022-12-29T03:59:44.392Z,99.78
2022-12-29T04:02:12.762Z,98.57
2022-12-29T04:04:41.752Z,98.86
2022-12-29T04:07:09.167Z,99.50
2022-12-29T04:09:36.771Z,98.37
2022-12-29T04:12:04.716Z,98.60
2022-12-29T04:14:34.917Z,99.81
2022-12-29T04:17:03.008Z,99.10
2022-12-29T04:19:31.049Z,100.00
2022-12-29T04:21:58.524Z,99.91
2022-12-29T04:24:25.917Z,100.00
2022-12-29T04:26:53.334Z,100.00
2022-12-29T04:29:31.531Z,100.00
2022-12-29T04:32:19.130Z,100.00
2022-12-29T04:34:50.095Z,99.62
2022-12-29T04:37:18.540Z,99.58
2022-12-29T04:39:46.073Z,99.83
2022-12-29T04:42:13.505Z,99.13
2022-12-29T04:44:45.050Z,98.77
2022-12-29T04:47:36.085Z,98.71
2022-12-29T04:50:35.602Z,99.43
2022-12-29T04:53:15.560Z,98.78
2022-12-29T04:55:44.344Z,99.12
2022-12-29T04:58:14.052Z,99.94
2022-12-29T05:00:45.061Z,99.96
2022-12-29T05:03:12.959Z,99.98
2022-12-29T05:05:42.743Z,100.00
2022-12-29T05:08:10.200Z,100.00
2022-12-29T05:10:38.115Z,99.57
2022-12-29T05:13:11.256Z,98.73
2022-12-29T05:15:39.402Z,98.25
2022-12-29T05:18:06.818Z,96.60
2022-12-29T05:20:35.034Z,96.28
2022-12-29T05:23:03.526Z,97.70
2022-12-29T05:25:31.036Z,97.48
2022-12-29T05:28:12.579Z,96.76
2022-12-29T05:31:00.260Z,97.38
2022-12-29T05:33:28.388Z,96.51
2022-12-29T05:35:55.885Z,96.60
2022-12-29T05:38:24.633Z,95.60
2022-12-29T05:40:52.049Z,95.57
2022-12-29T05:43:42.317Z,96.08
2022-12-29T05:46:30.807Z,94.17
2022-12-29T05:49:20.098Z,93.59
2022-12-29T05:51:59.993Z,94.53
2022-12-29T05:54:29.546Z,95.38
2022-12-29T05:56:57.358Z,95.49
2022-12-29T05:59:24.828Z,95.11
2022-12-29T06:01:54.031Z,95.50
2022-12-29T06:04:21.598Z,95.71
2022-12-29T06:06:49.125Z,94.07
2022-12-29T06:09:31.313Z,94.47
2022-12-29T06:11:58.713Z,94.24
2022-12-29T06:14:26.791Z,95.36
2022-12-29T06:16:54.284Z,95.08
2022-12-29T06:19:22.947Z,95.21
2022-12-29T06:21:50.374Z,96.36
2022-12-29T06:24:17.793Z,97.85
2022-12-29T06:26:45.162Z,97.25
2022-12-29T06:29:14.345Z,96.61
2022-12-29T06:31:42.215Z,96.97
2022-12-29T06:34:10.010Z,96.40
2022-12-29T06:36:37.810Z,96.70
2022-12-29T06:39:06.835Z,97.80
2022-12-29T06:41:35.096Z,97.19
2022-12-29T06:44:28.719Z,98.76
2022-12-29T06:46:59.125Z,99.32
2022-12-29T06:49:26.428Z,98.80
2022-12-29T06:51:53.782Z,98.86
2022-12-29T06:54:21.120Z,98.57
2022-12-29T06:56:48.440Z,97.54
2022-12-29T06:59:15.737Z,98.14
2022-12-29T07:01:43.321Z,98.26
2022-12-29T07:04:10.687Z,99.20
2022-12-29T07:06:38.040Z,98.86
2022-12-29T07:09:05.352Z,98.63
2022-12-29T07:11:32.697Z,98.13
2022-12-29T07:14:02.553Z,98.33
2022-12-29T07:16:31.210Z,99.20
2022-12-29T07:19:00.547Z,99.36
2022-12-29T07:21:27.977Z,99.51
2022-12-29T07:23:55.821Z,100.00
2022-12-29T07:26:23.322Z,100.00
2022-12-29T07:28:50.774Z,99.41
2022-12-29T07:31:20.921Z,97.01
2022-12-29T07:33:49.080Z,97.47
2022-12-29T07:36:18.345Z,97.29
2022-12-29T07:38:45.825Z,95.82
2022-12-29T07:41:13.456Z,96.08
2022-12-29T07:43:40.837Z,95.42
2022-12-29T07:46:56.410Z,96.04
2022-12-29T07:49:13.995Z,94.70
2022-12-29T07:51:41.440Z,96.26
2022-12-29T07:54:10.182Z,94.77
2022-12-29T07:56:37.553Z,94.41
2022-12-29T07:59:05.325Z,91.08
2022-12-29T08:01:32.877Z,90.12
2022-12-29T08:04:00.427Z,91.15
2022-12-29T08:06:27.919Z,93.42
2022-12-29T08:08:57.235Z,94.77
2022-12-29T08:11:25.203Z,95.43
2022-12-29T08:13:52.695Z,95.42
2022-12-29T08:16:20.292Z,93.63
2022-12-29T08:18:47.793Z,94.77
2022-12-29T08:21:16.420Z,94.73
2022-12-29T08:23:43.901Z,96.65
2022-12-29T08:26:12.119Z,97.98
2022-12-29T08:28:39.948Z,100.00
2022-12-29T08:31:07.516Z,100.00
2022-12-29T08:33:34.999Z,100.00
2022-12-29T08:36:04.275Z,99.90
2022-12-29T08:38:31.742Z,98.91
2022-12-29T08:41:01.966Z,98.21
2022-12-29T08:43:29.858Z,96.69
2022-12-29T08:45:59.440Z,96.88
2022-12-29T08:48:27.764Z,97.27
2022-12-29T08:50:55.077Z,96.92
2022-12-29T08:53:22.432Z,97.76
2022-12-29T08:56:04.146Z,95.84
2022-12-29T08:58:38.996Z,93.98
2022-12-29T09:01:06.624Z,92.96
2022-12-29T09:06:22.286Z,91.56
2022-12-29T09:08:49.726Z,90.24
2022-12-29T09:11:20.136Z,89.46
2022-12-29T09:13:48.035Z,90.78
2022-12-29T09:16:16.717Z,90.88
2022-12-29T09:18:44.920Z,90.94
2022-12-29T09:21:13.346Z,91.25
2022-12-29T09:23:41.588Z,90.36
2022-12-29T09:26:09.608Z,90.48
2022-12-29T09:28:37.772Z,90.83
2022-12-29T09:31:05.466Z,91.44
2022-12-29T09:33:34.825Z,91.78
2022-12-29T09:36:02.899Z,92.09
2022-12-29T09:38:30.469Z,92.96
2022-12-29T09:41:07.896Z,93.61
2022-12-29T09:43:55.950Z,94.34
2022-12-29T09:46:29.314Z,94.62
2022-12-29T09:49:27.852Z,94.69
2022-12-29T09:52:00.816Z,95.00
2022-12-29T09:54:48.203Z,94.05
2022-12-29T09:57:25.560Z,94.54
2022-12-29T09:59:59.176Z,95.31
2022-12-29T10:02:45.074Z,95.53
2022-12-29T10:05:26.010Z,95.12
2022-12-29T10:08:12.490Z,95.72
2022-12-29T10:11:04.331Z,95.53
2022-12-29T10:13:57.728Z,95.61
2022-12-29T10:16:53.837Z,95.19
2022-12-29T10:19:39.966Z,93.97
2022-12-29T10:22:07.228Z,92.52
2022-12-29T10:24:38.799Z,93.07
2022-12-29T10:27:13.177Z,93.47
2022-12-29T10:29:53.236Z,94.08
2022-12-29T10:32:49.628Z,91.99
2022-12-29T10:35:26.272Z,91.01
2022-12-29T10:38:05.231Z,90.57
2022-12-29T10:40:46.373Z,90.25
2022-12-29T10:43:44.150Z,89.65
2022-12-29T10:46:19.351Z,90.16
2022-12-29T10:48:48.568Z,89.10
2022-12-29T10:51:23.638Z,89.71
2022-12-29T10:54:06.173Z,91.09
2022-12-29T10:56:40.202Z,90.36
2022-12-29T10:59:17.107Z,90.78
2022-12-29T11:01:59.861Z,90.70
2022-12-29T11:04:31.944Z,91.88
2022-12-29T11:07:00.490Z,91.98
2022-12-29T11:09:42.449Z,90.48
2022-12-29T11:12:31.673Z,91.33
2022-12-29T11:15:15.000Z,91.69
2022-12-29T11:17:54.894Z,91.60
2022-12-29T11:20:34.694Z,92.66
2022-12-29T11:23:04.443Z,89.57
2022-12-29T11:25:32.414Z,88.98
2022-12-29T11:28:15.016Z,88.65
2022-12-29T11:30:42.817Z,90.62
2022-12-29T11:33:10.769Z,91.74
2022-12-29T11:35:42.148Z,91.80
2022-12-29T11:38:41.419Z,92.54
2022-12-29T11:41:14.621Z,93.54
2022-12-29T11:43:44.464Z,94.95
2022-12-29T11:46:29.014Z,95.60
2022-12-29T11:49:00.563Z,96.39
2022-12-29T11:51:29.671Z,97.10
2022-12-29T11:54:03.743Z,97.29
2022-12-29T11:56:40.781Z,97.87
2022-12-29T11:59:35.143Z,97.64
2022-12-29T12:02:17.311Z,98.28
2022-12-29T12:04:45.009Z,98.39
2022-12-29T12:07:18.096Z,97.42
2022-12-29T12:09:52.864Z,97.48
2022-12-29T12:12:38.717Z,97.88
2022-12-29T12:15:06.948Z,98.30
2022-12-29T12:18:12.615Z,97.41
2022-12-29T12:20:46.562Z,96.40
2022-12-29T12:23:32.797Z,96.66
2022-12-29T12:26:20.152Z,97.75
2022-12-29T12:29:12.643Z,97.97
2022-12-29T12:31:49.000Z,98.50
2022-12-29T12:34:33.305Z,99.49
2022-12-29T12:37:16.724Z,100.00
2022-12-29T12:40:08.921Z,100.00
2022-12-29T12:43:10.115Z,99.99
2022-12-29T12:45:50.502Z,100.00
2022-12-29T12:48:34.635Z,100.00
2022-12-29T12:51:23.726Z,100.00
2022-12-29T12:54:13.319Z,100.00
2022-12-29T12:57:06.899Z,100.00
2022-12-29T13:00:07.962Z,100.00
2022-12-29T13:02:52.040Z,100.00
2022-12-29T13:05:27.051Z,100.00
2022-12-29T13:08:24.910Z,100.00
2022-12-29T13:11:19.226Z,100.00
2022-12-29T13:14:14.569Z,100.00
2022-12-29T13:17:27.003Z,100.00
2022-12-29T13:20:25.718Z,100.00
2022-12-29T13:23:06.923Z,100.00
2022-12-29T13:25:52.435Z,100.00
2022-12-29T13:28:30.186Z,100.00
2022-12-29T13:31:19.519Z,100.00
2022-12-29T13:34:14.627Z,100.00
2022-12-29T13:36:52.730Z,100.00
2022-12-29T13:39:34.179Z,100.00
2022-12-29T13:42:03.739Z,100.00
2022-12-29T13:45:00.410Z,100.00
2022-12-29T13:47:42.523Z,100.00
2022-12-29T13:50:22.342Z,100.00
2022-12-29T13:53:03.871Z,100.00
2022-12-29T13:55:55.915Z,100.00
2022-12-29T13:58:29.120Z,100.00
2022-12-29T14:01:04.799Z,100.00
2022-12-29T14:03:44.697Z,100.00
2022-12-29T14:06:27.412Z,100.00
2022-12-29T14:09:00.840Z,100.00
2022-12-29T14:11:37.697Z,100.00
2022-12-29T14:14:22.261Z,100.00
2022-12-29T14:16:50.457Z,100.00
2022-12-29T14:19:25.014Z,100.00
2022-12-29T14:22:00.736Z,100.00
2022-12-29T14:24:34.556Z,100.00
2022-12-29T14:27:22.356Z,100.00
2022-12-29T14:29:51.971Z,100.00
2022-12-29T14:32:24.641Z,100.00
2022-12-29T14:34:58.794Z,100.00
2022-12-29T14:37:37.297Z,100.00
2022-12-29T14:40:04.660Z,100.00
2022-12-29T14:42:33.208Z,100.00
2022-12-29T14:45:15.938Z,100.00
2022-12-29T14:47:48.914Z,100.00
2022-12-29T14:50:43.743Z,100.00
2022-12-29T14:53:44.048Z,100.00
2022-12-29T14:56:14.041Z,100.00
2022-12-29T14:58:58.491Z,100.00
2022-12-29T15:01:33.525Z,100.00
2022-12-29T15:04:15.529Z,100.00
2022-12-29T15:06:45.832Z,100.00
2022-12-29T15:09:31.369Z,100.00
2022-12-29T15:12:22.403Z,100.00
2022-12-29T15:14:52.859Z,100.00
2022-12-29T15:17:35.447Z,100.00
2022-12-29T15:20:18.125Z,100.00
2022-12-29T15:22:46.508Z,100.00
2022-12-29T15:25:17.546Z,100.00
2022-12-29T15:28:00.561Z,100.00
2022-12-29T15:30:28.050Z,100.00
2022-12-29T15:32:55.706Z,100.00
2022-12-29T15:35:32.273Z,100.00
2022-12-29T15:38:00.664Z,100.00
2022-12-29T15:40:32.169Z,100.00
2022-12-29T15:43:33.894Z,100.00
2022-12-29T15:46:03.312Z,100.00
2022-12-29T15:48:32.177Z,100.00
2022-12-29T15:51:00.613Z,100.00
2022-12-29T15:53:33.555Z,100.00
2022-12-29T15:56:09.711Z,100.00
2022-12-29T15:58:51.847Z,100.00
2022-12-29T16:01:56.054Z,100.00
2022-12-29T16:04:26.789Z,100.00
2022-12-29T16:07:05.397Z,100.00
2022-12-29T16:09:36.760Z,100.00
2022-12-29T16:12:16.777Z,100.00
2022-12-29T16:14:50.041Z,100.00
2022-12-29T16:17:27.844Z,100.00
2022-12-29T16:20:02.661Z,100.00
2022-12-29T16:22:34.655Z,100.00
2022-12-29T16:25:16.571Z,100.00
2022-12-29T16:27:45.020Z,100.00
2022-12-29T16:30:26.554Z,100.00
2022-12-29T16:33:04.014Z,100.00
2022-12-29T16:35:47.413Z,100.00
2022-12-29T16:38:14.705Z,100.00
2022-12-29T16:40:51.289Z,100.00
2022-12-29T16:43:23.323Z,100.00
2022-12-29T16:45:54.171Z,100.00
2022-12-29T16:48:25.182Z,100.00
2022-12-29T16:51:01.565Z,100.00
2022-12-29T16:53:33.303Z,100.00
2022-12-29T16:56:04.491Z,100.00
2022-12-29T16:58:33.310Z,100.00
2022-12-29T17:01:01.525Z,100.00
2022-12-29T17:03:36.573Z,100.00
2022-12-29T17:06:04.169Z,100.00
2022-12-29T17:08:41.668Z,100.00
2022-12-29T17:11:59.355Z,100.00
2022-12-29T17:14:53.705Z,100.00
2022-12-29T17:17:40.766Z,100.00
2022-12-29T17:20:29.486Z,100.00
2022-12-29T17:22:58.166Z,100.00
2022-12-29T17:25:37.832Z,100.00
2022-12-29T17:28:08.654Z,100.00
2022-12-29T17:30:36.218Z,100.00
2022-12-29T17:33:10.659Z,100.00
2022-12-29T17:35:38.088Z,100.00
2022-12-29T17:38:21.714Z,100.00
2022-12-29T17:40:49.218Z,100.00
2022-12-29T17:43:17.343Z,100.00
2022-12-29T17:45:49.674Z,100.00
2022-12-29T17:48:18.989Z,100.00
2022-12-29T17:50:49.746Z,100.00
2022-12-29T17:53:23.197Z,100.00
2022-12-29T17:55:50.908Z,100.00
2022-12-29T17:58:19.756Z,100.00
2022-12-29T18:00:49.111Z,100.00
2022-12-29T18:03:19.942Z,100.00
2022-12-29T18:05:47.729Z,100.00
2022-12-29T18:08:15.269Z,100.00
2022-12-29T18:10:43.418Z,100.00
2022-12-29T18:13:21.367Z,100.00
2022-12-29T18:15:48.933Z,100.00
2022-12-29T18:18:19.439Z,100.00
2022-12-29T18:20:48.721Z,100.00
2022-12-29T18:23:21.038Z,100.00
2022-12-29T18:26:00.229Z,100.00
2022-12-29T18:28:28.143Z,100.00
2022-12-29T18:31:01.266Z,100.00
2022-12-29T18:33:29.915Z,100.00
2022-12-29T18:36:06.439Z,100.00
2022-12-29T18:38:33.818Z,100.00
2022-12-29T18:41:01.252Z,100.00
2022-12-29T18:43:28.668Z,100.00
2022-12-29T18:45:56.226Z,100.00
2022-12-29T18:48:23.806Z,100.00
2022-12-29T18:50:51.995Z,100.00
2022-12-29T18:53:22.350Z,100.00
2022-12-29T18:55:50.855Z,100.00
2022-12-29T18:58:18.970Z,100.00
2022-12-29T19:00:47.040Z,100.00
2022-12-29T19:03:17.389Z,100.00
2022-12-29T19:05:49.692Z,100.00
2022-12-29T19:08:21.478Z,100.00
2022-12-29T19:10:49.218Z,100.00
2022-12-29T19:13:20.047Z,100.00
2022-12-29T19:15:47.912Z,100.00
2022-12-29T19:21:08.463Z,100.00
2022-12-29T19:23:35.884Z,100.00
2022-12-29T19:26:03.286Z,100.00
2022-12-29T19:28:30.656Z,100.00
2022-12-29T19:31:02.717Z,100.00
2022-12-29T19:33:30.277Z,100.00
2022-12-29T19:36:02.063Z,100.00
2022-12-29T19:38:29.941Z,100.00
2022-12-29T19:40:57.609Z,100.00
2022-12-29T19:43:24.965Z,100.00
2022-12-29T19:45:53.505Z,100.00
2022-12-29T19:48:21.345Z,100.00
2022-12-29T19:50:48.760Z,100.00
2022-12-29T19:53:16.199Z,100.00
2022-12-29T19:55:47.209Z,100.00
2022-12-29T19:58:15.292Z,100.00
2022-12-29T20:00:43.578Z,100.00
2022-12-29T20:03:11.567Z,100.00
2022-12-29T20:05:40.242Z,100.00
2022-12-29T20:08:07.619Z,100.00
2022-12-29T20:10:34.943Z,100.00
2022-12-29T20:13:04.438Z,100.00
2022-12-29T20:15:32.147Z,100.00
2022-12-29T20:18:13.047Z,100.00
2022-12-29T20:20:42.327Z,100.00
2022-12-29T20:23:09.728Z,100.00
2022-12-29T20:25:45.913Z,100.00
2022-12-29T20:28:14.835Z,100.00
2022-12-29T20:30:42.899Z,100.00
2022-12-29T20:33:10.351Z,100.00
2022-12-29T20:35:37.906Z,100.00
2022-12-29T20:38:05.388Z,100.00
2022-12-29T20:40:32.788Z,100.00
2022-12-29T20:43:00.166Z,100.00
2022-12-29T20:45:27.560Z,100.00
2022-12-29T20:47:54.955Z,100.00
2022-12-29T20:50:22.296Z,100.00
2022-12-29T20:52:49.689Z,100.00
2022-12-29T20:55:17.078Z,100.00
2022-12-29T20:58:22.027Z,100.00
2022-12-29T21:00:33.043Z,100.00
2022-12-29T21:03:01.331Z,100.00
2022-12-29T21:05:29.677Z,100.00
2022-12-29T21:07:59.639Z,100.00
2022-12-29T21:10:27.178Z,100.00
2022-12-29T21:12:54.633Z,100.00
2022-12-29T21:15:22.564Z,100.00
2022-12-29T21:17:50.039Z,100.00
2022-12-29T21:20:29.765Z,100.00
2022-12-29T21:23:00.045Z,100.00
2022-12-29T21:25:37.240Z,100.00
2022-12-29T21:28:12.320Z,100.00
2022-12-29T21:30:41.588Z,100.00
2022-12-29T21:33:09.089Z,100.00
2022-12-29T21:35:38.807Z,100.00
2022-12-29T21:38:07.870Z,100.00
2022-12-29T21:40:36.858Z,100.00
2022-12-29T21:43:05.211Z,100.00
2022-12-29T21:45:34.159Z,100.00
2022-12-29T21:48:21.147Z,100.00
2022-12-29T21:51:11.872Z,100.00
2022-12-29T21:53:44.724Z,100.00
2022-12-29T21:56:14.795Z,100.00
2022-12-29T21:59:03.649Z,100.00
2022-12-29T22:01:51.621Z,100.00
2022-12-29T22:04:42.872Z,100.00
2022-12-29T22:07:31.294Z,100.00
2022-12-29T22:10:17.533Z,100.00
2022-12-29T22:13:00.691Z,100.00
2022-12-29T22:15:31.192Z,100.00
2022-12-29T22:17:59.355Z,100.00
2022-12-29T22:20:30.232Z,100.00
2022-12-29T22:22:57.915Z,100.00
2022-12-29T22:25:26.017Z,100.00
2022-12-29T22:27:58.945Z,100.00
2022-12-29T22:30:28.141Z,100.00
2022-12-29T22:32:57.476Z,100.00
2022-12-29T22:35:25.104Z,100.00
2022-12-29T22:37:53.092Z,100.00
2022-12-29T22:40:20.638Z,100.00
2022-12-29T22:42:48.173Z,100.00
2022-12-29T22:45:15.570Z,100.00
2022-12-29T22:47:42.951Z,100.00
2022-12-29T22:50:10.482Z,100.00
2022-12-29T22:52:37.920Z,100.00
2022-12-29T22:55:07.249Z,100.00
2022-12-29T22:57:35.835Z,100.00
2022-12-29T23:00:08.276Z,100.00
2022-12-29T23:02:36.334Z,100.00
2022-12-29T23:05:05.577Z,100.00
2022-12-29T23:07:35.181Z,100.00
2022-12-29T23:10:04.428Z,100.00
2022-12-29T23:12:32.338Z,100.00
2022-12-29T23:14:59.756Z,100.00
2022-12-29T23:17:27.565Z,100.00
2022-12-29T23:19:54.959Z,100.00
2022-12-29T23:22:23.104Z,100.00
2022-12-29T23:24:50.639Z,100.00
2022-12-29T23:27:18.132Z,100.00
2022-12-29T23:29:45.590Z,100.00
2022-12-29T23:32:12.989Z,100.00
2022-12-29T23:34:40.359Z,100.00
2022-12-29T23:37:07.815Z,100.00
2022-12-29T23:39:35.229Z,100.00
2022-12-29T23:42:02.664Z,100.00
2022-12-29T23:44:30.037Z,100.00
2022-12-29T23:46:57.466Z,100.00
2022-12-29T23:49:24.861Z,100.00
2022-12-29T23:51:52.251Z,100.00
2022-12-29T23:54:19.569Z,100.00
2022-12-29T23:56:46.941Z,100.00
2022-12-29T23:59:14.356Z,100.00
